Latest Weather Observations for Flinders Island Airport

IDT60801

Issued at 3:02 am EDT Friday 30 January 2015 (issued every 30 minutes, with the page automatically refreshed every 10 minutes)

About weather observations | Map of weather stations | Latest weather observations for TAS | Other Formats
Station Details ID: 099005 Name: FLINDERS ISLAND AIRPORT Lat: -40.09 Lon: 148.00 Height: 9.0 m
Data from the previous 72 hours. | See also: Recent months at Flinders Island Airport
Date/Time
EDT
Temp
°C
App
Temp
°C
Dew
Point
Rel
Hum
%
Delta-T
°C
Wind Press
QNH
hPa
Press
MSL
hPa
Rain
since 9 am
mm
Dir
 
Spd
km/h
Gust
km/h
Spd
kts
Gust
kts
30/03:00am 14.0 7.4 7.8 66 3.1 S 32 50 17 27 1016.0 1016.0 1.4
30/02:37am 14.0 7.7 7.5 65 3.2 S 30 48 16 26 1016.1 1016.1 1.4
30/02:30am 14.1 7.4 8.3 68 2.9 S 33 48 18 26 1016.1 1016.1 1.4
30/02:00am 14.1 7.4 8.1 67 3.0 S 33 52 18 28 1016.3 1016.3 1.4
30/01:37am 14.2 7.6 7.7 65 3.2 S 32 50 17 27 1016.6 1016.6 1.4
30/01:30am 14.2 7.6 7.7 65 3.2 S 32 48 17 26 1016.8 1016.8 1.4
30/01:03am 14.4 7.7 7.5 63 3.4 S 32 52 17 28 1017.1 1017.1 1.4
30/01:00am 14.4 7.7 7.2 62 3.5 S 32 43 17 23 1017.0 1017.0 1.4
30/12:48am 14.4 7.7 7.2 62 3.5 S 32 50 17 27 1017.2 1017.2 1.4
30/12:30am 14.4 6.7 7.2 62 3.5 S 37 52 20 28 1017.2 1017.2 1.4
30/12:00am 14.6 8.0 7.6 63 3.5 S 32 46 17 25 1017.5 1017.5 1.4
 
Date/Time
EDT
Temp
°C
App
Temp
°C
Dew
Point
Rel
Hum
%
Delta-T
°C
Wind Press
QNH
hPa
Press
MSL
hPa
Rain
since 9 am
mm
Dir
 
Spd
km/h
Gust
km/h
Spd
kts
Gust
kts
29/11:45pm 14.5 7.6 7.3 62 3.5 S 33 52 18 28 1017.8 1017.8 1.4
29/11:30pm 14.5 7.6 7.3 62 3.5 S 33 44 18 24 1018.1 1018.0 1.4
29/11:02pm 14.7 8.4 7.5 62 3.6 S 30 50 16 27 1018.5 1018.4 1.4
29/11:00pm 14.7 8.4 7.5 62 3.5 S 30 43 16 23 1018.5 1018.4 1.4
29/10:30pm 14.7 8.4 7.5 62 3.6 SSE 30 50 16 27 1018.9 1018.8 1.4
29/10:20pm 14.9 8.4 8.2 64 3.4 SSE 32 52 17 28 1018.9 1018.8 1.4
29/10:00pm 14.7 9.2 7.7 63 3.5 SSE 26 43 14 23 1019.0 1018.9 1.4
29/09:30pm 14.9 8.9 7.2 60 3.8 SSE 28 46 15 25 1018.8 1018.7 1.4
29/09:00pm 14.7 8.9 8.0 64 3.3 SSE 28 48 15 26 1018.7 1018.6 1.4
29/08:59pm 14.7 8.9 8.0 64 3.3 SSE 28 48 15 26 1018.7 1018.6 1.4
29/08:30pm 14.9 10.1 7.5 61 3.7 SSE 22 43 12 23 1018.6 1018.5 1.4
29/08:00pm 15.6 10.1 7.6 59 4.0 SSE 26 41 14 22 1018.3 1018.2 1.4
29/07:30pm 16.4 11.8 8.1 58 4.2 SSE 22 43 12 23 1018.2 1018.1 1.4
29/07:00pm 16.3 11.5 9.0 62 3.7 SE 24 50 13 27 1018.3 1018.2 1.4
29/06:30pm 16.3 12.5 9.7 65 3.4 SE 20 35 11 19 1018.4 1018.3 1.4
29/06:00pm 14.8 10.2 9.6 71 2.7 SE 24 39 13 21 1019.1 1019.0 1.4
29/05:30pm 17.4 12.3 9.1 58 4.3 SSE 26 44 14 24 1018.9 1018.8 1.4
29/05:00pm 17.8 13.2 9.7 59 4.3 SSE 24 41 13 22 1019.0 1018.9 1.4
29/04:30pm 16.1 11.9 9.8 66 3.3 SE 22 41 12 22 1019.4 1019.3 1.4
29/04:00pm 19.3 15.0 9.5 53 5.2 SSE 22 37 12 20 1019.1 1019.0 1.4
29/03:30pm 18.1 14.1 9.2 56 4.7 SSE 20 37 11 20 1019.5 1019.4 1.4
29/03:00pm 17.2 12.2 10.8 66 3.4 SSE 28 44 15 24 1019.6 1019.5 1.4
29/02:43pm 18.1 13.2 11.4 65 3.7 S 28 48 15 26 1019.6 1019.5 1.4
29/02:30pm 17.9 14.2 10.3 61 4.0 SSE 20 39 11 21 1019.7 1019.6 1.4
29/02:00pm 16.3 12.9 10.6 69 3.0 SSE 19 35 10 19 1019.8 1019.7 1.4
29/01:30pm 16.5 13.4 11.6 73 2.7 SSE 19 30 10 16 1019.9 1019.8 1.4
29/01:16pm 15.4 12.9 12.3 82 1.7 SSE 17 28 9 15 1020.0 1019.9 1.4
29/01:02pm 14.2 11.0 11.9 86 1.2 SSE 20 41 11 22 1020.3 1020.2 1.4
29/01:00pm 14.4 10.8 11.9 85 1.3 SSE 22 41 12 22 1020.3 1020.2 1.2
29/12:30pm 14.4 11.6 11.4 82 1.6 SSE 17 28 9 15 1020.5 1020.4 0.8
29/12:00pm 17.5 14.0 10.9 65 3.5 SSE 20 32 11 17 1020.2 1020.1 0.4
29/11:30am 16.9 13.8 12.2 74 2.6 SSE 20 32 11 17 1020.5 1020.4 0.4
29/11:09am 15.7 13.0 13.0 84 1.5 SE 19 30 10 16 1020.6 1020.5 0.4
29/11:00am 15.0 12.6 12.5 85 1.4 SE 17 32 9 17 1020.6 1020.5 0.4
29/10:58am 14.9 12.0 12.4 85 1.4 SSE 19 32 10 17 1020.7 1020.6 0.4
29/10:56am 14.7 11.5 12.0 84 1.5 SSE 20 37 11 20 1020.7 1020.6 0.4
29/10:52am 14.8 11.2 11.9 83 1.6 SSE 22 37 12 20 1020.7 1020.6 0.4
29/10:42am 15.4 11.5 12.0 80 1.8 SSE 24 35 13 19 1020.6 1020.5 0.2
29/10:30am 15.2 12.2 12.1 82 1.7 SSE 19 32 10 17 1020.5 1020.4 0.2
29/10:16am 16.0 11.4 11.2 73 2.6 SSE 26 43 14 23 1020.5 1020.4 0.0
29/10:00am 16.1 12.9 11.1 72 2.7 SSE 19 35 10 19 1020.5 1020.4 0.0
29/09:59am 16.7 13.5 11.4 71 2.9 SSE 19 35 10 19 1020.5 1020.4 0.0
29/09:30am 15.2 12.0 11.8 80 1.8 SSE 20 33 11 18 1020.7 1020.6 0.0
29/09:00am 15.3 12.2 11.7 79 1.9 SSE 19 35 10 19 1020.5 1020.4 1.2
29/08:54am 14.9 11.9 11.9 82 1.6 SSE 19 35 10 19 1020.4 1020.3 1.2
29/08:30am 14.2 11.3 11.0 81 1.7 SSE 17 30 9 16 1020.4 1020.3 1.2
29/08:00am 13.9 10.3 10.5 80 1.8 SSE 20 32 11 17 1020.2 1020.1 1.2
29/07:30am 13.5 9.9 11.7 89 1.0 S 22 35 12 19 1020.2 1020.1 1.2
29/07:14am 13.2 10.8 11.4 89 1.0 SE 15 26 8 14 1019.9 1019.8 1.2
29/07:00am 13.0 9.2 11.2 89 0.9 SSE 22 46 12 25 1020.0 1019.9 1.0
29/06:58am 13.0 8.8 11.2 89 0.9 SSE 24 46 13 25 1020.0 1019.9 1.0
29/06:30am 12.9 8.7 11.1 89 0.9 SSE 24 41 13 22 1019.9 1019.8 1.0
29/06:00am 13.1 8.5 11.2 88 1.0 SSE 26 41 14 22 1019.8 1019.7 0.6
29/05:30am 13.7 9.1 10.9 83 1.5 S 26 37 14 20 1019.8 1019.7 0.2
29/05:24am 13.8 8.8 11.0 83 1.5 S 28 46 15 25 1019.7 1019.6 0.2
29/05:23am 13.8 8.4 11.0 83 1.5 S 30 46 16 25 1019.7 1019.6 0.2
29/05:17am 13.8 8.8 11.1 84 1.4 S 28 46 15 25 1019.7 1019.6 0.2
29/05:00am 13.9 8.9 11.1 83 1.5 SSE 28 41 15 22 1019.7 1019.6 0.2
29/04:30am 13.5 9.2 10.7 83 1.5 SSE 24 37 13 20 1019.7 1019.6 0.2
29/04:00am 14.0 10.6 9.2 73 2.4 SSE 17 33 9 18 1019.7 1019.6 0.0
29/03:30am 14.1 10.4 9.3 73 2.5 SSE 19 35 10 19 1019.9 1019.8 0.0
29/03:00am 14.4 10.4 9.0 70 2.7 SSE 20 32 11 17 1020.1 1020.0 0.0
29/02:30am 14.5 10.1 9.1 70 2.8 SSE 22 37 12 20 1020.4 1020.3 0.0
29/02:00am 14.4 9.6 9.0 70 2.7 SSE 24 35 13 19 1020.7 1020.6 0.0
29/01:30am 14.7 10.0 9.1 69 2.9 S 24 33 13 18 1020.9 1020.8 0.0
29/01:21am 14.8 9.4 9.4 70 2.8 S 28 44 15 24 1021.0 1020.9 0.0
29/01:00am 14.7 11.8 8.0 64 3.3 SSE 13 26 7 14 1021.2 1021.1 0.0
29/12:30am 14.6 10.8 9.0 69 2.9 SSE 19 32 10 17 1021.4 1021.3 0.0
29/12:00am 14.8 10.8 9.2 69 2.9 SSE 20 33 11 18 1021.6 1021.5 0.0
 
Date/Time
EDT
Temp
°C
App
Temp
°C
Dew
Point
Rel
Hum
%
Delta-T
°C
Wind Press
QNH
hPa
Press
MSL
hPa
Rain
since 9 am
mm
Dir
 
Spd
km/h
Gust
km/h
Spd
kts
Gust
kts
28/11:30pm 14.1 11.2 8.3 68 2.9 SE 13 24 7 13 1021.8 1021.7 0.0
28/11:00pm 14.7 11.9 8.4 66 3.2 SE 13 24 7 13 1022.2 1022.1 0.0
28/10:30pm 14.7 11.8 8.2 65 3.3 SE 13 19 7 10 1022.3 1022.2 0.0
28/10:00pm 14.2 11.2 7.9 66 3.1 SE 13 19 7 10 1022.3 1022.2 0.0
28/09:30pm 14.5 11.4 8.7 68 2.9 SE 15 28 8 15 1022.1 1022.0 0.0
28/09:00pm 14.5 10.8 8.0 65 3.2 SE 17 30 9 16 1022.0 1021.9 0.0
28/08:30pm 14.8 10.5 6.9 59 3.9 ESE 19 32 10 17 1021.8 1021.7 0.0
28/08:00pm 15.2 10.9 7.2 59 3.9 SE 19 35 10 19 1021.6 1021.5 0.0
28/07:30pm 15.9 12.1 7.7 58 4.1 ESE 17 30 9 16 1021.4 1021.3 0.0
28/07:00pm 16.8 12.6 7.4 54 4.7 SE 19 35 10 19 1021.1 1021.0 0.0
28/06:30pm 17.6 13.1 6.8 49 5.4 SE 20 41 11 22 1021.0 1020.9 0.0
28/06:00pm 17.1 12.3 7.2 52 4.9 SE 22 37 12 20 1020.8 1020.7 0.0
28/05:30pm 17.5 12.2 6.7 49 5.4 SE 24 35 13 19 1020.9 1020.8 0.0
28/05:00pm 18.6 12.9 5.1 41 6.5 ESE 24 39 13 21 1020.7 1020.6 0.0
28/04:30pm 18.5 12.3 6.0 44 6.2 SE 28 48 15 26 1020.6 1020.5 0.0
28/04:06pm 19.1 13.1 7.2 46 6.0 SE 28 48 15 26 1020.6 1020.5 0.0
28/04:00pm 19.1 14.0 7.5 47 5.9 SE 24 48 13 26 1020.5 1020.4 0.0
28/03:30pm 18.9 13.2 6.7 45 6.1 ESE 26 41 14 22 1020.7 1020.6 0.0
28/03:00pm 18.7 13.8 6.9 46 5.9 ESE 22 39 12 21 1020.9 1020.8 0.0
28/02:30pm 17.5 13.1 7.5 52 5.0 SE 20 41 11 22 1021.2 1021.1 0.0
28/02:00pm 19.7 15.5 8.4 48 5.9 SE 20 35 11 19 1021.2 1021.1 0.0
28/01:30pm 19.9 15.4 8.6 48 5.9 SE 22 37 12 20 1021.2 1021.1 0.0
28/01:00pm 19.6 14.7 9.8 53 5.2 ESE 26 48 14 26 1021.1 1021.0 0.0
28/12:30pm 18.9 14.7 8.3 50 5.5 SE 20 39 11 21 1020.9 1020.8 0.0
28/12:00pm 20.1 15.7 9.1 49 5.8 SE 22 39 12 21 1020.8 1020.7 0.0
28/11:30am 18.8 14.9 9.3 54 5.0 SE 20 33 11 18 1020.9 1020.8 0.0
28/11:00am 17.9 13.9 9.0 56 4.6 SE 20 32 11 17 1021.0 1020.9 0.0
28/10:30am 17.5 13.2 9.2 58 4.3 SE 22 37 12 20 1021.2 1021.1 0.0
28/10:00am 16.7 12.0 9.1 61 3.9 SE 24 37 13 20 1021.0 1020.9 0.0
28/09:30am 18.0 13.6 8.8 55 4.8 SE 22 39 12 21 1020.9 1020.8 0.0
28/09:00am 17.2 13.5 9.6 61 4.0 SE 19 32 10 17 1020.9 1020.8 0.0
28/08:30am 16.9 12.6 9.3 61 3.9 ESE 22 39 12 21 1020.6 1020.5 0.0
28/08:00am 16.4 13.3 10.3 67 3.2 SE 17 33 9 18 1020.3 1020.2 0.0
28/07:30am 15.3 12.9 9.9 70 2.8 SSE 13 26 7 14 1019.9 1019.8 0.0
28/07:00am 14.4 11.7 10.4 77 2.1 SSE 15 26 8 14 1019.6 1019.5 0.0
28/06:30am 13.5 10.9 10.7 83 1.5 SE 15 24 8 13 1019.4 1019.3 0.0
28/06:00am 13.3 11.6 9.7 79 1.8 ESE 9 17 5 9 1019.1 1019.0 0.0
28/05:30am 13.2 11.0 9.3 77 2.0 ESE 11 17 6 9 1018.8 1018.7 0.0
28/05:00am 13.8 11.6 9.3 74 2.3 ESE 11 17 6 9 1018.6 1018.5 0.0
28/04:30am 14.5 11.9 9.5 72 2.6 SE 13 19 7 10 1018.6 1018.5 0.0
28/04:00am 13.9 12.3 10.3 79 1.9 ESE 9 11 5 6 1018.7 1018.6 0.0
28/03:30am 14.1 12.6 10.5 79 1.9 SE 9 13 5 7 1018.9 1018.8 0.0
28/03:00am 13.8 12.5 11.1 84 1.4 SE 9 13 5 7 1019.0 1018.9 0.0
28/02:30am 14.2 12.6 11.7 85 1.3 ESE 11 15 6 8 1019.1 1019.0 0.0
28/02:00am 14.2 12.2 11.5 84 1.4 ESE 13 22 7 12 1019.2 1019.1 0.0
28/01:30am 14.1 11.2 10.9 81 1.7 ESE 17 26 9 14 1019.1 1019.0 0.0
28/01:00am 13.4 11.3 11.1 86 1.2 SE 13 20 7 11 1019.1 1019.0 0.0
28/12:30am 12.7 11.3 10.8 88 1.0 E 9 9 5 5 1019.0 1018.9 0.0
28/12:00am 10.5 8.1 8.8 89 0.8 ENE 11 13 6 7 1019.0 1018.9 0.0
 
Date/Time
EDT
Temp
°C
App
Temp
°C
Dew
Point
Rel
Hum
%
Delta-T
°C
Wind Press
QNH
hPa
Press
MSL
hPa
Rain
since 9 am
mm
Dir
 
Spd
km/h
Gust
km/h
Spd
kts
Gust
kts
27/11:30pm 8.7 6.2 6.5 86 1.0 ENE 9 11 5 6 1018.9 1018.8 0.0
27/11:00pm 9.5 6.7 6.9 84 1.2 ENE 11 11 6 6 1018.9 1018.8 0.0
27/10:30pm 10.3 7.9 7.0 80 1.6 ENE 9 11 5 6 1018.9 1018.8 0.0
27/10:00pm 12.0 10.2 7.9 76 2.0 NE 7 9 4 5 1018.7 1018.6 0.0
27/09:30pm 11.9 10.5 7.4 74 2.2 WNW 4 7 2 4 1018.5 1018.4 0.0
27/09:00pm 14.2 12.7 8.4 68 2.9 W 6 13 3 7 1018.0 1017.9 0.0
27/08:30pm 15.7 13.6 8.4 62 3.7 WSW 9 11 5 6 1017.7 1017.7 0.0
27/08:00pm 16.6 13.9 8.8 60 4.0 W 13 17 7 9 1017.3 1017.3 0.0
27/07:30pm 17.3 14.2 8.7 57 4.4 W 15 20 8 11 1017.0 1017.0 0.0
27/07:00pm 17.3 13.2 7.9 54 4.8 W 19 22 10 12 1016.5 1016.5 0.0
27/06:30pm 17.7 13.4 8.0 53 4.9 WNW 20 28 11 15 1016.0 1016.0 0.0
27/06:00pm 18.0 13.5 7.1 49 5.5 WNW 20 28 11 15 1016.0 1016.0 0.0
27/05:30pm 17.9 13.6 7.0 49 5.4 W 19 24 10 13 1016.1 1016.1 0.0
27/05:00pm 18.0 13.7 7.1 49 5.5 WSW 19 24 10 13 1016.3 1016.3 0.0
27/04:30pm 18.8 15.5 7.9 49 5.6 W 15 20 8 11 1016.2 1016.2 0.0
27/04:00pm 18.8 15.2 6.9 46 6.0 WSW 15 19 8 10 1016.4 1016.4 0.0
27/03:30pm 18.6 14.9 8.0 50 5.4 WSW 17 22 9 12 1016.6 1016.6 0.0
27/03:00pm 19.1 15.1 8.4 50 5.5 WSW 19 28 10 15 1016.6 1016.6 0.0
27/02:30pm 18.1 14.1 8.4 53 5.0 WSW 19 28 10 15 1016.8 1016.8 0.0
27/02:00pm 18.6 14.1 8.6 52 5.2 WSW 22 30 12 16 1016.8 1016.8 0.0
27/01:30pm 18.7 14.7 8.9 53 5.1 WSW 20 28 11 15 1016.9 1016.9 0.0
27/01:00pm 18.6 14.3 9.4 55 4.8 WSW 22 28 12 15 1017.2 1017.2 0.0
27/12:30pm 18.2 14.5 9.5 57 4.6 WSW 19 26 10 14 1017.1 1017.1 0.0
27/12:00pm 17.9 14.0 9.5 58 4.4 WSW 20 26 11 14 1017.1 1017.1 0.0
27/11:30am 18.2 14.5 9.5 57 4.6 WSW 19 26 10 14 1017.0 1017.0 0.0
27/11:00am 17.4 13.8 9.8 61 4.0 WSW 19 24 10 13 1017.1 1017.1 0.0
27/10:30am 17.4 14.0 9.3 59 4.2 WSW 17 22 9 12 1017.1 1017.1 0.0
27/10:00am 16.8 13.2 9.7 63 3.7 W 19 26 10 14 1017.2 1017.2 0.0
27/09:30am 17.7 14.7 7.7 52 5.1 NNW 13 26 7 14 1017.0 1017.0 0.0
27/09:00am 17.1 13.7 7.7 54 4.7 NNW 15 20 8 11 1017.1 1017.1 0.0
27/08:30am 16.7 13.5 8.4 58 4.2 N 15 19 8 10 1016.9 1016.9 0.0
27/08:00am 14.1 11.5 9.3 73 2.4 ENE 13 17 7 9 1016.7 1016.7 0.0
27/07:30am 10.6 7.8 8.7 88 0.9 ENE 13 15 7 8 1016.6 1016.6 0.0
27/07:00am 7.6 3.9 6.5 93 0.5 ENE 15 17 8 9 1016.4 1016.4 0.0
27/06:30am 6.8 3.0 5.7 93 0.5 ENE 15 17 8 9 1016.3 1016.3 0.0
27/06:00am 6.6 3.5 5.6 93 0.4 ENE 11 13 6 7 1016.3 1016.3 0.0
27/05:30am 6.3 2.8 5.3 93 0.4 ENE 13 13 7 7 1016.1 1016.1 0.0
27/05:00am 6.3 2.0 5.3 93 0.4 ENE 17 17 9 9 1016.0 1016.0 0.0
27/04:30am 6.5 2.6 5.5 93 0.4 ENE 15 17 8 9 1016.1 1016.1 0.0
27/04:00am 6.5 3.0 5.5 93 0.4 NE 13 13 7 7 1016.2 1016.2 0.0
27/03:30am 6.1 2.5 5.2 94 0.4 ENE 13 15 7 8 1016.5 1016.5 0.0

Other Formats:

Comma delimited format used in spreadsheet applications
http://www.bom.gov.au/fwo/IDT60801/IDT60801.94980.axf

JavaScript Object Notation format (JSON) in row-major order
http://www.bom.gov.au/fwo/IDT60801/IDT60801.94980.json